Time;durP1;ratioP1;P1;durP2;ratioP2;P2;SDS_P1;SDS_P2;PMS_P1;PMS_P2;Temp;Humidity;BMP_temperature;BMP_pressure;BME280_temperature;BME280_humidity;BME280_pressure;Samples;Min_cycle;Max_cycle;Signal;HPM_P1;HPM_P2
2022/06/19 00:00:50;;;;;;;5.03;3.25;;;17.10;1.00;;;17.86;85.62;99003.69;5044213;27;119053;-74
2022/06/19 00:03:25;;;;;;;6.15;3.00;;;17.10;1.00;;;17.91;86.52;99011.63;5059109;27;119860;-74
2022/06/19 00:05:55;;;;;;;5.78;3.40;;;17.20;1.00;;;17.88;85.92;99001.41;5058812;27;129857;-71
2022/06/19 00:08:24;;;;;;;5.82;3.05;;;17.20;1.00;;;17.86;85.26;98991.94;5058816;27;129500;-69
2022/06/19 00:10:53;;;;;;;6.00;3.10;;;17.20;1.00;;;17.89;85.46;98986.53;5057797;27;122262;-70
2022/06/19 00:13:22;;;;;;;5.95;2.95;;;17.20;1.00;;;17.92;85.14;98983.03;5044286;27;121591;-70
2022/06/19 00:15:52;;;;;;;5.43;3.17;;;17.20;1.00;;;17.92;84.23;98985.78;5058943;27;130940;-72
2022/06/19 00:18:20;;;;;;;8.82;3.13;;;17.30;99.90;;;17.96;84.58;98981.09;5043783;27;129989;-69
2022/06/19 00:20:49;;;;;;;4.97;3.00;;;17.30;99.90;;;17.99;83.89;98984.28;5041074;27;119853;-69
2022/06/19 00:23:17;;;;;;;6.00;3.20;;;17.30;99.90;;;17.96;84.08;98974.81;5059113;27;119983;-70
2022/06/19 00:25:46;;;;;;;5.22;3.10;;;17.20;99.90;;;17.96;84.14;98959.13;5058753;27;130306;-70
2022/06/19 00:28:15;;;;;;;5.22;3.22;;;17.20;99.90;;;17.94;84.51;98966.97;5044100;27;128276;-71
2022/06/19 00:30:43;;;;;;;8.48;3.63;;;17.10;1.00;;;17.93;84.63;98959.09;5059161;27;119875;-70
2022/06/19 00:33:13;;;;;;;8.75;3.30;;;17.10;1.00;;;17.94;84.58;98958.72;5059070;27;119601;-70
2022/06/19 00:35:42;;;;;;;5.45;3.25;;;17.10;1.00;;;17.91;84.15;98956.72;5056143;27;129860;-72
2022/06/19 00:38:11;;;;;;;5.57;3.40;;;17.10;1.00;;;17.91;84.33;98945.75;5026476;27;129648;-70
2022/06/19 00:40:40;;;;;;;5.85;3.25;;;17.10;1.00;;;17.86;84.95;98948.81;5058962;27;119720;-71
2022/06/19 00:43:09;;;;;;;5.78;3.20;;;17.10;1.00;;;17.83;84.50;98944.06;5058798;27;120190;-69
2022/06/19 00:45:41;;;;;;;7.18;3.35;;;17.10;1.00;;;17.83;84.91;98938.56;5058492;27;129829;-71
2022/06/19 00:48:16;;;;;;;6.43;3.40;;;17.20;1.00;;;17.84;84.67;98945.66;5058402;27;129590;-69
2022/06/19 00:50:47;;;;;;;7.07;3.50;;;17.20;1.00;;;17.86;85.14;98937.06;5059049;27;119680;-70
2022/06/19 00:53:21;;;;;;;10.05;3.78;;;17.20;1.00;;;17.79;84.25;98932.25;5041129;27;119296;-70
2022/06/19 00:55:52;;;;;;;6.38;3.53;;;17.20;99.90;;;17.84;84.33;98926.44;5058548;27;130270;-71
2022/06/19 00:58:27;;;;;;;6.63;3.42;;;17.30;99.90;;;17.76;84.32;98933.00;5058315;27;129459;-69
2022/06/19 01:01:01;;;;;;;6.72;3.58;;;17.30;99.90;;;17.77;84.87;98929.09;5057362;27;122320;-71
2022/06/19 01:03:41;;;;;;;7.25;3.50;;;17.30;99.90;;;17.76;84.98;98922.03;5043431;27;120653;-71
2022/06/19 01:06:10;;;;;;;6.28;3.40;;;17.20;99.90;;;17.80;84.64;98920.13;5058147;27;130112;-73
2022/06/19 01:08:39;;;;;;;5.65;3.20;;;17.20;99.90;;;17.75;84.97;98915.75;5058103;27;130291;-70
2022/06/19 01:11:08;;;;;;;7.47;3.42;;;17.20;99.90;;;17.69;85.40;98913.72;5058785;27;120200;-71
2022/06/19 01:13:38;;;;;;;6.93;3.42;;;17.10;99.90;;;17.65;85.42;98908.16;5058522;27;119321;-70
2022/06/19 01:16:08;;;;;;;6.25;3.50;;;17.10;99.90;;;17.56;85.97;98897.50;5060893;27;129901;-73
2022/06/19 01:18:40;;;;;;;5.93;3.75;;;17.00;1.00;;;17.49;85.95;98896.63;5047273;27;128924;-71
2022/06/19 01:21:16;;;;;;;5.80;3.47;;;17.10;99.90;;;17.48;86.26;98882.09;5046947;27;120054;-72
2022/06/19 01:24:08;;;;;;;5.35;3.40;;;17.00;1.00;;;17.44;86.59;98878.53;5062159;27;119861;-72
2022/06/19 01:26:44;;;;;;;5.93;3.53;;;16.90;1.00;;;17.43;86.59;98887.91;5042012;27;130156;-71
2022/06/19 01:29:13;;;;;;;7.65;3.65;;;16.90;1.00;;;17.41;87.15;98873.78;5046536;27;129739;-71
2022/06/19 01:31:47;;;;;;;7.00;3.50;;;16.90;1.00;;;17.35;87.50;98870.56;5061748;27;119573;-72
2022/06/19 01:34:28;;;;;;;6.03;3.80;;;16.90;1.00;;;17.32;87.62;98856.81;5061953;27;120348;-72
2022/06/19 01:37:04;;;;;;;6.03;3.50;;;16.90;1.00;;;17.30;87.76;98872.88;5060099;27;129895;-71
2022/06/19 01:39:38;;;;;;;6.10;3.50;;;16.90;1.00;;;17.35;87.92;98867.03;5046386;27;129599;-70
2022/06/19 01:42:11;;;;;;;7.38;3.75;;;16.90;1.00;;;17.38;87.20;98863.56;5061711;27;119952;-71
2022/06/19 01:44:40;;;;;;;6.70;3.60;;;17.00;1.00;;;17.45;86.34;98858.16;5061772;27;119891;-71
2022/06/19 01:47:10;;;;;;;6.15;3.72;;;17.00;1.00;;;17.50;85.98;98849.59;5061137;27;130253;-72
2022/06/19 01:49:43;;;;;;;5.38;3.60;;;17.00;1.00;;;17.48;86.21;98838.19;5061225;27;129658;-70
2022/06/19 01:52:11;;;;;;;7.40;3.63;;;17.00;1.00;;;17.50;86.08;98844.13;5060212;27;121890;-70
2022/06/19 01:54:47;;;;;;;7.85;3.78;;;17.00;1.00;;;17.51;85.95;98845.69;5046164;27;120976;-70
2022/06/19 01:57:18;;;;;;;5.45;3.42;;;17.00;1.00;;;17.51;85.98;98834.72;5061098;27;130539;-74
2022/06/19 01:59:47;;;;;;;6.28;4.00;;;17.00;1.00;;;17.49;85.94;98830.78;5046173;27;129075;-71
2022/06/19 02:02:17;;;;;;;7.38;3.65;;;17.00;1.00;;;17.54;85.08;98844.94;5042870;27;119607;-71
2022/06/19 02:04:46;;;;;;;6.43;3.40;;;17.10;99.90;;;17.63;84.80;98832.91;5046294;27;118862;-73
2022/06/19 02:07:22;;;;;;;6.32;3.58;;;17.10;99.90;;;17.55;85.01;98830.06;5042692;27;129998;-69
2022/06/19 02:09:52;;;;;;;4.95;3.58;;;17.10;99.90;;;17.64;84.53;98831.72;5061118;27;130434;-72
2022/06/19 02:12:23;;;;;;;6.13;3.88;;;17.10;99.90;;;17.70;84.43;98813.75;5061063;27;119848;-70
2022/06/19 02:14:52;;;;;;;5.10;3.90;;;17.20;99.90;;;17.75;84.08;98821.66;5061506;27;120087;-70
2022/06/19 02:17:28;;;;;;;7.40;3.42;;;17.20;99.90;;;17.83;83.25;98815.06;5044433;27;129492;-73
2022/06/19 02:19:57;;;;;;;7.13;3.72;;;17.20;99.90;;;17.93;83.05;98822.63;5060714;27;129378;-71
2022/06/19 02:22:26;;;;;;;7.40;3.38;;;17.30;99.90;;;18.00;82.56;98807.41;5045890;27;119212;-72
2022/06/19 02:24:54;;;;;;;6.32;3.47;;;17.40;99.90;;;18.08;82.34;98807.09;5060934;27;119694;-71
2022/06/19 02:27:26;;;;;;;8.20;3.65;;;17.40;99.90;;;18.21;81.72;98810.34;5060094;27;130155;-72
2022/06/19 02:29:55;;;;;;;4.82;3.10;;;17.50;99.90;;;18.33;80.71;98795.53;5062481;27;128502;-75
2022/06/19 02:32:30;;;;;;;6.95;3.60;;;17.50;99.90;;;18.45;80.35;98798.00;5045667;27;118380;-71
2022/06/19 02:34:59;;;;;;;7.57;3.83;;;17.60;99.90;;;18.52;79.37;98790.97;5060982;27;120052;-70
2022/06/19 02:37:32;;;;;;;7.20;3.53;;;17.70;99.90;;;18.64;79.37;98783.19;5060396;27;130050;-71
2022/06/19 02:40:13;;;;;;;5.60;3.00;;;17.70;99.90;;;18.72;78.57;98784.03;5060232;27;129517;-73
2022/06/19 02:42:47;;;;;;;6.30;3.63;;;17.80;99.90;;;18.77;78.43;98780.13;5061388;27;121929;-73
2022/06/19 02:45:19;;;;;;;6.78;3.60;;;17.80;99.90;;;18.85;77.64;98781.75;5045699;27;121860;-71
2022/06/19 02:47:49;;;;;;;6.25;3.25;;;17.80;99.90;;;18.95;77.50;98778.28;5060314;27;130466;-70
2022/06/19 02:50:21;;;;;;;8.82;3.40;;;17.90;99.90;;;19.01;77.35;98763.00;5058841;27;130422;-74
2022/06/19 02:52:51;;;;;;;8.60;3.90;;;17.90;99.90;;;19.06;77.18;98761.84;5045122;27;119034;-69
2022/06/19 02:55:21;;;;;;;8.98;3.90;;;17.90;99.90;;;19.10;77.00;98764.59;5062475;27;119589;-72
2022/06/19 02:57:51;;;;;;;5.45;3.10;;;18.00;99.90;;;19.33;76.46;98770.56;5058930;27;130171;-69
2022/06/19 03:00:22;;;;;;;6.20;3.15;;;18.20;99.90;;;19.28;76.25;98759.19;5045082;27;128373;-70
2022/06/19 03:02:54;;;;;;;6.15;3.28;;;18.00;99.90;;;19.47;75.47;98766.31;5060444;27;120109;-74
2022/06/19 03:05:29;;;;;;;5.20;3.13;;;18.20;99.90;;;19.77;73.00;98773.47;5060416;27;120452;-71
2022/06/19 03:07:58;;;;;;;7.55;3.72;;;18.20;99.90;;;19.88;73.35;98768.75;5058697;27;130484;-71
2022/06/19 03:10:30;;;;;;;5.57;3.00;;;18.40;99.90;;;20.20;72.26;98777.03;5027982;27;128674;-70
2022/06/19 03:13:01;;;;;;;5.50;3.17;;;18.50;99.90;;;20.31;71.32;98774.28;5059900;27;119699;-70
2022/06/19 03:15:29;;;;;;;6.28;3.15;;;18.50;99.90;;;20.20;71.50;98779.00;5045143;27;119126;-70
2022/06/19 03:17:58;;;;;;;7.75;3.10;;;18.40;99.90;;;20.13;71.97;98779.78;5041691;27;129874;-71
2022/06/19 03:20:28;;;;;;;5.88;3.30;;;18.40;99.90;;;20.09;72.46;98763.25;5044569;27;129567;-69
2022/06/19 03:22:57;;;;;;;5.78;3.80;;;18.30;99.90;;;19.95;72.77;98760.50;5059872;27;120263;-68
2022/06/19 03:25:26;;;;;;;6.70;3.65;;;18.20;99.90;;;19.74;73.80;98764.78;5060421;27;120121;-69
2022/06/19 03:27:54;;;;;;;5.53;3.67;;;18.20;99.90;;;19.70;73.67;98775.00;5059475;27;130449;-70
2022/06/19 03:30:25;;;;;;;5.65;3.40;;;18.30;99.90;;;19.61;73.80;98774.59;5044520;27;128465;-69
2022/06/19 03:32:54;;;;;;;4.95;3.60;;;18.30;99.90;;;19.57;74.29;98773.78;5043725;27;121371;-71
2022/06/19 03:35:23;;;;;;;5.38;3.63;;;18.20;99.90;;;19.47;75.30;98761.59;5060116;27;122388;-70
2022/06/19 03:37:51;;;;;;;6.57;3.72;;;18.30;99.90;;;19.48;75.34;98767.88;5058725;27;129918;-69
2022/06/19 03:40:20;;;;;;;7.65;4.13;;;18.30;99.90;;;19.39;74.95;98755.28;5044159;27;128469;-71
2022/06/19 03:42:48;;;;;;;9.27;4.25;;;18.30;99.90;;;19.51;75.06;98769.84;5059812;27;119522;-74
2022/06/19 03:45:17;;;;;;;5.53;3.78;;;18.40;99.90;;;19.66;74.61;98774.19;5059955;27;119594;-72
2022/06/19 03:47:47;;;;;;;11.70;3.88;;;18.30;99.90;;;19.62;74.45;98764.34;5059333;27;129816;-72
2022/06/19 03:50:19;;;;;;;4.88;3.58;;;18.40;99.90;;;19.74;74.41;98775.81;5060251;27;130155;-73
2022/06/19 03:52:48;;;;;;;7.60;3.90;;;18.50;99.90;;;19.64;74.74;98765.56;5061934;27;119232;-72
2022/06/19 03:55:17;;;;;;;7.55;3.88;;;18.40;99.90;;;19.59;75.29;98765.94;5061966;27;119100;-72
2022/06/19 03:57:47;;;;;;;7.18;4.00;;;18.40;99.90;;;19.58;75.42;98775.38;5043929;27;105327;-71
2022/06/19 04:00:19;;;;;;;9.27;4.03;;;18.40;99.90;;;19.57;75.66;98771.84;5021968;27;129906;-70
2022/06/19 04:02:49;;;;;;;8.05;3.90;;;18.40;99.90;;;19.70;75.47;98772.25;5039932;27;120093;-71
2022/06/19 04:05:18;;;;;;;6.10;3.95;;;18.40;99.90;;;19.69;75.52;98775.41;5027000;27;118908;-75
2022/06/19 04:07:49;;;;;;;7.28;4.35;;;18.50;99.90;;;19.77;75.64;98778.97;5042663;27;129788;-68
2022/06/19 04:10:20;;;;;;;6.18;4.15;;;18.50;99.90;;;19.97;74.96;98785.69;5057423;27;130095;-70
2022/06/19 04:12:49;;;;;;;5.90;4.50;;;18.60;99.90;;;20.22;74.01;98795.94;5060187;27;119485;-72
2022/06/19 04:15:18;;;;;;;7.70;4.32;;;18.70;99.90;;;20.26;73.39;98791.22;5045297;27;117999;-71
2022/06/19 04:17:49;;;;;;;5.75;3.92;;;18.60;99.90;;;20.33;73.25;98790.41;5043959;27;129048;-73
2022/06/19 04:20:17;;;;;;;6.40;4.25;;;18.80;99.90;;;20.37;72.94;98783.72;5041924;27;130476;-72
2022/06/19 04:22:46;;;;;;;7.70;4.13;;;18.80;99.90;;;20.45;72.73;98788.03;5022725;27;121091;-71
2022/06/19 04:25:15;;;;;;;6.57;3.80;;;18.90;99.90;;;20.50;72.48;98788.81;5039134;27;122725;-71
2022/06/19 04:27:44;;;;;;;5.72;3.70;;;19.00;99.90;;;20.50;72.23;98777.81;5020547;27;130396;-73
2022/06/19 04:30:14;;;;;;;8.07;4.05;;;19.00;99.90;;;20.62;71.99;98782.91;5038383;27;130240;-71
2022/06/19 04:32:42;;;;;;;7.57;4.05;;;19.10;99.90;;;20.95;70.04;98772.59;5045280;27;120060;-71
2022/06/19 04:35:13;;;;;;;7.93;4.13;;;19.20;99.90;;;21.18;69.96;98781.19;5050273;27;119582;-74
2022/06/19 04:37:43;;;;;;;6.60;3.90;;;19.40;99.90;;;21.39;69.13;98796.06;5025080;27;128909;-73
2022/06/19 04:40:13;;;;;;;6.60;4.38;;;19.40;99.90;;;21.76;67.66;98791.94;5057236;27;129989;-74
2022/06/19 04:42:42;;;;;;;6.13;3.92;;;19.60;99.90;;;21.84;67.49;98795.44;5059044;27;119597;-72
2022/06/19 04:45:11;;;;;;;7.68;3.88;;;19.60;99.90;;;21.88;67.47;98787.94;5044299;27;119286;-73
2022/06/19 04:47:40;;;;;;;6.85;4.15;;;19.80;99.90;;;21.82;66.87;98784.03;5057477;27;129990;-73
2022/06/19 04:50:12;;;;;;;6.50;4.03;;;19.90;99.90;;;21.84;66.64;98782.41;5046483;27;129390;-70
2022/06/19 04:52:40;;;;;;;6.93;4.10;;;19.80;99.90;;;21.95;67.10;98782.34;5062414;27;119581;-71
2022/06/19 04:55:12;;;;;;;6.88;3.78;;;19.80;99.90;;;22.15;66.28;98784.59;5064698;27;120387;-71
2022/06/19 04:57:41;;;;;;;7.20;4.13;;;19.90;99.90;;;22.10;66.13;98787.78;5062049;27;129852;-74
2022/06/19 05:00:14;;;;;;;6.05;4.18;;;19.90;99.90;;;22.12;66.59;98777.88;5047028;27;128655;-70
2022/06/19 05:02:43;;;;;;;5.68;3.83;;;20.10;99.90;;;22.16;65.87;98786.94;5062606;27;119829;-72
2022/06/19 05:05:18;;;;;;;6.65;3.88;;;20.00;99.90;;;22.27;66.19;98792.38;5063049;27;120518;-70
2022/06/19 05:07:48;;;;;;;5.93;4.30;;;20.10;99.90;;;22.39;64.94;98777.28;5046989;27;129319;-71
2022/06/19 05:10:17;;;;;;;8.27;4.47;;;20.00;99.90;;;22.31;65.34;98776.56;5062013;27;130439;-72
2022/06/19 05:12:45;;;;;;;9.30;3.85;;;20.10;99.90;;;22.48;65.27;98769.28;5045801;27;121548;-72
2022/06/19 05:15:14;;;;;;;9.00;4.07;;;20.30;99.90;;;22.65;64.66;98788.91;5046815;27;121759;-75
2022/06/19 05:17:42;;;;;;;6.03;4.30;;;20.50;99.90;;;22.61;63.56;98786.94;5046598;27;129601;-74
2022/06/19 05:20:12;;;;;;;7.15;4.65;;;20.40;99.90;;;22.57;63.84;98786.19;5061712;27;130659;-72
2022/06/19 05:22:42;;;;;;;6.93;4.30;;;20.30;99.90;;;22.47;64.40;98780.75;5046962;27;119514;-74
2022/06/19 05:25:12;;;;;;;8.18;4.43;;;20.10;99.90;;;22.52;64.45;98789.41;5061989;27;119362;-75
2022/06/19 05:27:41;;;;;;;6.70;4.05;;;20.30;99.90;;;22.86;63.42;98783.16;5060177;27;129989;-74
2022/06/19 05:30:14;;;;;;;8.00;4.38;;;20.50;99.90;;;23.06;62.66;98791.63;5060494;27;130430;-74
2022/06/19 05:32:43;;;;;;;7.68;3.85;;;20.50;99.90;;;23.36;61.92;98794.81;5061921;27;119750;-72
2022/06/19 05:35:11;;;;;;;10.15;4.40;;;20.80;99.90;;;23.23;62.63;98789.84;5061841;27;119658;-75
2022/06/19 05:37:42;;;;;;;7.40;4.50;;;20.60;99.90;;;22.86;63.24;98793.41;5060282;27;130013;-72
2022/06/19 05:40:11;;;;;;;9.27;4.65;;;20.60;99.90;;;22.60;64.36;98804.72;5061580;27;129678;-75
2022/06/19 05:42:40;;;;;;;7.82;4.88;;;20.50;99.90;;;22.69;64.27;98807.03;5061826;27;119659;-75
2022/06/19 05:45:10;;;;;;;8.30;4.40;;;20.40;99.90;;;22.64;64.69;98809.44;5061544;27;120017;-75
2022/06/19 05:47:39;;;;;;;10.60;4.93;;;20.50;99.90;;;22.72;65.34;98816.47;5061505;27;129905;-75
2022/06/19 05:50:09;;;;;;;7.70;4.93;;;20.60;99.90;;;22.86;63.91;98805.28;5061425;27;129476;-73
2022/06/19 05:52:38;;;;;;;6.85;4.80;;;20.70;99.90;;;22.79;63.83;98810.88;5061762;27;119624;-74
2022/06/19 05:55:12;;;;;;;8.98;4.88;;;20.60;99.90;;;22.61;65.62;98795.25;5064004;27;119717;-75
2022/06/19 05:57:40;;;;;;;18.42;5.68;;;20.60;99.90;;;22.47;65.56;98814.75;5061178;27;129810;-75
2022/06/19 06:00:10;;;;;;;9.57;5.05;;;20.60;99.90;;;22.53;64.73;98798.47;5060595;27;128959;-76
2022/06/19 06:02:42;;;;;;;8.32;4.60;;;20.50;99.90;;;22.64;65.07;98795.63;5060137;27;122651;-76
2022/06/19 06:05:11;;;;;;;7.25;5.10;;;20.60;99.90;;;22.67;64.56;98792.81;5061292;27;121791;-76
2022/06/19 06:07:40;;;;;;;7.05;4.82;;;20.60;99.90;;;22.90;64.47;98800.47;5063020;27;129153;-76
2022/06/19 06:10:11;;;;;;;8.80;5.05;;;20.90;99.90;;;22.93;63.29;98809.94;5061019;27;129626;-76
2022/06/19 06:12:40;;;;;;;5.80;4.35;;;20.80;99.90;;;22.97;63.99;98794.09;5061625;27;120097;-77
2022/06/19 06:15:11;;;;;;;6.38;4.38;;;20.90;99.90;;;23.09;64.70;98795.56;5061046;27;120545;-75
2022/06/19 06:17:39;;;;;;;7.80;5.18;;;21.20;99.90;;;23.13;63.32;98799.06;5046317;27;129663;-74
2022/06/19 06:20:09;;;;;;;8.68;4.30;;;21.00;99.90;;;23.32;63.84;98797.66;5061533;27;129919;-75
2022/06/19 06:22:37;;;;;;;6.78;4.65;;;21.00;99.90;;;23.24;63.13;98796.94;5061383;27;120377;-76
2022/06/19 06:25:11;;;;;;;9.57;4.60;;;21.00;99.90;;;23.33;63.73;98800.00;5061449;27;120061;-75
2022/06/19 06:27:40;;;;;;;6.55;4.35;;;21.20;99.90;;;23.37;63.17;98799.16;5044697;27;128910;-73
2022/06/19 06:30:11;;;;;;;8.10;4.80;;;21.10;99.90;;;23.51;62.51;98815.59;5063840;27;129254;-76
2022/06/19 06:32:40;;;;;;;9.57;4.93;;;21.10;99.90;;;23.61;63.92;98803.59;5067152;27;120072;-76
2022/06/19 06:35:10;;;;;;;7.05;4.50;;;21.50;99.90;;;23.71;63.00;98795.56;5066458;27;119464;-74
2022/06/19 06:37:38;;;;;;;9.10;4.95;;;21.40;99.90;;;23.67;61.80;98804.69;5055620;27;129864;-76
2022/06/19 06:40:10;;;;;;;7.88;4.45;;;21.30;99.90;;;23.83;61.66;98811.59;5067991;27;130010;-73
2022/06/19 06:42:40;;;;;;;8.45;4.65;;;21.40;99.90;;;23.94;61.74;98806.72;5061021;27;120148;-73
2022/06/19 06:45:13;;;;;;;8.50;4.43;;;21.70;99.90;;;24.00;61.08;98818.88;5059564;27;119578;-74
2022/06/19 06:47:42;;;;;;;8.07;4.55;;;21.70;99.90;;;24.08;61.44;98816.03;5058119;27;130633;-73
2022/06/19 06:50:11;;;;;;;8.48;4.20;;;21.70;99.90;;;24.00;60.58;98807.81;5051629;27;129408;-71
2022/06/19 06:52:40;;;;;;;6.55;3.70;;;21.80;99.90;;;23.82;61.28;98802.50;5034520;27;123495;-73
2022/06/19 06:55:12;;;;;;;8.48;3.72;;;21.80;99.90;;;24.00;60.18;98805.03;5041144;27;122071;-78
2022/06/19 06:57:41;;;;;;;8.18;4.22;;;22.10;99.90;;;24.04;60.28;98814.09;5020073;28;130553;-73
2022/06/19 07:00:17;;;;;;;10.55;4.00;;;21.70;99.90;;;24.10;60.23;98799.75;5019263;27;130450;-72
2022/06/19 07:02:46;;;;;;;6.05;3.50;;;22.10;99.90;;;24.41;59.65;98798.41;5040207;27;119683;-75
2022/06/19 07:05:15;;;;;;;7.60;3.70;;;22.00;99.90;;;24.30;59.42;98797.81;5040586;27;121107;-75
2022/06/19 07:07:44;;;;;;;7.22;4.22;;;22.10;99.90;;;24.44;59.06;98805.13;5024669;27;129314;-76
2022/06/19 07:10:14;;;;;;;9.95;4.03;;;22.00;99.90;;;24.36;59.50;98801.69;5035783;27;129541;-74
2022/06/19 07:12:43;;;;;;;8.75;4.20;;;22.00;99.90;;;24.46;59.48;98799.16;5026925;27;119299;-71
2022/06/19 07:15:13;;;;;;;7.03;3.97;;;22.20;99.90;;;24.23;60.20;98801.50;5018971;28;119724;-77
2022/06/19 07:17:41;;;;;;;6.57;3.67;;;22.10;99.90;;;24.40;59.99;98799.66;5032229;27;129920;-74
2022/06/19 07:20:12;;;;;;;9.43;3.83;;;22.40;99.90;;;24.53;59.42;98804.59;5037881;27;130502;-75
2022/06/19 07:22:40;;;;;;;9.18;3.90;;;22.40;99.90;;;24.69;58.88;98801.94;5038278;27;120087;-75
2022/06/19 07:25:15;;;;;;;9.40;3.90;;;22.60;99.90;;;24.84;58.99;98790.56;5022227;27;119429;-75
2022/06/19 07:27:45;;;;;;;7.53;3.88;;;22.70;99.90;;;24.90;57.01;98811.06;5003474;28;128837;-73
2022/06/19 07:30:19;;;;;;;8.68;3.97;;;22.60;99.90;;;24.89;56.85;98804.72;5050972;27;129200;-74
2022/06/19 07:32:48;;;;;;;7.32;3.58;;;22.70;99.90;;;25.10;57.22;98802.75;5039122;27;119705;-78
2022/06/19 07:35:17;;;;;;;10.30;3.42;;;22.90;99.90;;;25.16;56.84;98803.03;5024368;27;118769;-75
2022/06/19 07:37:46;;;;;;;6.70;3.42;;;22.80;99.90;;;25.19;57.48;98810.50;5038970;27;130814;-76
2022/06/19 07:40:17;;;;;;;6.55;3.60;;;23.00;99.90;;;25.33;56.52;98787.25;5038149;27;129512;-73
2022/06/19 07:42:47;;;;;;;7.85;3.50;;;23.10;99.90;;;25.14;56.41;98797.13;5037490;27;122561;-72
2022/06/19 07:45:16;;;;;;;10.32;3.50;;;22.70;99.90;;;25.34;57.37;98786.03;5038375;27;121691;-76
2022/06/19 07:50:31;;;;;;;7.47;3.15;;;23.40;99.90;;;25.73;55.86;98779.63;5034912;27;129525;-73
2022/06/19 07:52:59;;;;;;;6.85;3.17;;;23.40;99.90;;;25.86;55.77;98779.72;5018506;28;119858;-75
2022/06/19 07:55:31;;;;;;;7.05;3.20;;;23.50;99.90;;;25.74;54.51;98775.63;5020368;28;119714;-76
2022/06/19 07:58:02;;;;;;;6.68;3.10;;;23.20;99.90;;;25.60;55.44;98779.50;5032855;27;129444;-75
2022/06/19 08:00:34;;;;;;;7.85;3.13;;;23.40;99.90;;;25.62;54.85;98781.88;5018108;28;129609;-74
2022/06/19 08:03:02;;;;;;;4.65;2.85;;;23.20;99.90;;;25.77;55.57;98780.31;5005286;27;118936;-75
2022/06/19 08:05:34;;;;;;;6.43;3.13;;;23.60;99.90;;;25.75;54.57;98779.97;5018478;27;118349;-73
2022/06/19 08:08:09;;;;;;;7.47;3.25;;;23.50;99.90;;;25.67;54.41;98767.44;5035335;27;129734;-75
2022/06/19 08:10:42;;;;;;;4.20;2.70;;;23.40;99.90;;;25.64;55.40;98773.88;5038512;27;130224;-76
2022/06/19 08:13:13;;;;;;;5.15;2.72;;;23.60;99.90;;;26.14;53.44;98764.38;5039094;27;120212;-74
2022/06/19 08:15:43;;;;;;;6.68;2.83;;;24.00;99.90;;;26.04;53.86;98770.19;5038833;27;119611;-76
2022/06/19 08:18:12;;;;;;;6.28;2.80;;;23.70;99.90;;;25.84;54.10;98771.81;5038215;27;129506;-76
2022/06/19 08:20:41;;;;;;;6.03;2.70;;;23.70;99.90;;;25.95;53.57;98771.56;5038504;27;130779;-75
2022/06/19 08:23:10;;;;;;;4.97;2.83;;;23.90;99.90;;;26.11;53.62;98772.81;5039004;27;119613;-74
2022/06/19 08:25:39;;;;;;;7.15;2.70;;;23.80;99.90;;;26.23;53.36;98774.88;5027825;27;119464;-75
2022/06/19 08:28:09;;;;;;;5.50;3.05;;;24.10;99.90;;;26.40;53.71;98767.31;5026816;27;129114;-73
2022/06/19 08:30:42;;;;;;;6.47;2.75;;;24.20;99.90;;;26.53;53.76;98770.91;5041849;27;129813;-74
2022/06/19 08:33:12;;;;;;;4.68;2.60;;;24.10;99.90;;;26.59;53.51;98784.31;5026433;27;122169;-72
2022/06/19 08:35:45;;;;;;;5.03;3.00;;;24.40;99.90;;;26.50;52.29;98796.81;5042344;27;122611;-76
2022/06/19 08:38:19;;;;;;;5.10;2.97;;;24.20;99.90;;;26.63;53.50;98791.34;5041681;27;129923;-76
2022/06/19 08:41:39;;;;;;;6.22;3.25;;;24.30;99.90;;;26.77;53.34;98784.66;5041118;27;129554;-75
2022/06/19 08:44:37;;;;;;;5.57;3.05;;;24.40;99.90;;;26.97;53.37;98797.63;4990477;27;120221;-76
2022/06/19 08:47:35;;;;;;;6.65;3.30;;;24.40;99.90;;;27.19;53.64;98786.66;5035831;27;119805;-76
2022/06/19 08:50:18;;;;;;;4.68;2.47;;;25.10;99.90;;;27.03;50.35;98779.16;5009865;27;129932;-78
2022/06/19 08:53:06;;;;;;;5.47;2.72;;;24.40;99.90;;;27.00;51.63;98775.25;5042134;27;129712;-78
2022/06/19 08:55:44;;;;;;;7.57;3.33;;;24.60;99.90;;;27.19;51.69;98776.31;5044141;27;119910;-76
2022/06/19 08:58:22;;;;;;;4.47;2.90;;;24.60;99.90;;;27.35;52.36;98760.78;5041759;27;119538;-77
2022/06/19 09:00:57;;;;;;;3.33;2.20;;;25.00;99.90;;;27.46;52.52;98766.78;5040420;27;129852;-74
2022/06/19 09:06:33;;;;;;;7.78;2.60;;;25.40;99.90;;;27.26;50.47;98770.50;5024829;27;118710;-76
2022/06/19 09:09:28;;;;;;;5.82;2.53;;;24.80;99.90;;;27.34;51.88;98759.97;5041858;27;119550;-72
2022/06/19 09:12:24;;;;;;;7.55;2.80;;;25.10;99.90;;;27.49;49.84;98754.75;5027662;27;130577;-76
2022/06/19 09:15:10;;;;;;;7.47;2.70;;;25.10;99.90;;;27.65;49.76;98772.59;5043360;27;129804;-75
2022/06/19 09:17:45;;;;;;;;;;;25.10;99.90;;;27.32;50.18;98761.66;5042326;27;119631;-72
2022/06/19 09:20:32;;;;;;;6.93;2.50;;;24.90;99.90;;;27.59;51.89;98756.41;5027306;27;119205;-74
2022/06/19 09:23:40;;;;;;;7.95;2.80;;;25.30;99.90;;;27.80;52.09;98751.41;5041325;27;130381;-74
2022/06/19 09:26:14;;;;;;;5.75;2.75;;;25.70;99.90;;;28.01;50.31;98760.34;5036138;27;129585;-76
2022/06/19 09:28:49;;;;;;;8.73;2.83;;;25.70;99.90;;;28.21;49.79;98760.84;5059146;27;121068;-74
2022/06/19 09:31:23;;;;;;;4.20;2.30;;;25.80;99.90;;;27.78;48.93;98765.00;5041761;27;122312;-76
2022/06/19 09:34:02;;;;;;;4.70;2.60;;;25.10;99.90;;;27.79;49.67;98766.56;5041302;27;129735;-74
2022/06/19 09:36:41;;;;;;;4.90;2.78;;;25.30;99.90;;;27.62;48.92;98769.47;5039183;27;130266;-74
2022/06/19 09:39:16;;;;;;;4.90;2.78;;;25.30;99.90;;;27.42;50.37;98777.25;5041818;27;119789;-75
2022/06/19 09:41:51;;;;;;;4.25;2.22;;;25.30;99.90;;;27.44;50.22;98775.59;5041642;27;119604;-76
2022/06/19 09:44:29;;;;;;;6.60;3.00;;;25.20;99.90;;;27.59;50.70;98781.50;5023639;27;130438;-74
2022/06/19 09:47:07;;;;;;;4.85;2.75;;;25.20;99.90;;;27.93;49.57;98798.78;5021327;28;129464;-75
2022/06/19 09:49:41;;;;;;;7.18;2.25;;;25.80;99.90;;;28.04;50.17;98809.63;5020948;28;119925;-74
2022/06/19 09:52:16;;;;;;;6.53;2.97;;;26.10;99.90;;;28.11;50.65;98798.22;5020872;28;120147;-75
2022/06/19 09:54:52;;;;;;;4.53;2.92;;;25.50;99.90;;;28.10;50.59;98796.69;5021005;28;129953;-74
2022/06/19 09:57:28;;;;;;;6.70;3.42;;;25.50;99.90;;;28.33;50.18;98804.69;5020661;28;130396;-73
2022/06/19 10:00:02;;;;;;;4.25;2.30;;;26.00;99.90;;;28.52;49.05;98799.28;5006058;28;119969;-78
2022/06/19 10:02:48;;;;;;;5.47;2.58;;;25.80;99.90;;;28.79;51.80;98784.03;5040473;27;120327;-76
2022/06/19 10:05:32;;;;;;;4.80;2.58;;;26.40;99.90;;;28.96;48.95;98785.38;5025145;27;129000;-75
2022/06/19 10:08:10;;;;;;;5.80;2.30;;;26.80;99.90;;;29.09;48.87;98784.53;5040828;27;130763;-76
2022/06/19 10:10:44;;;;;;;4.88;2.63;;;26.80;99.90;;;29.04;46.93;98800.63;5039433;27;120035;-75
2022/06/19 10:13:19;;;;;;;5.38;2.50;;;26.60;99.90;;;28.87;47.39;98785.31;5044501;27;119530;-77
2022/06/19 10:15:49;;;;;;;5.97;2.37;;;26.00;99.90;;;28.68;47.32;98787.97;5040973;27;129959;-73
2022/06/19 10:18:24;;;;;;;5.10;2.72;;;25.90;99.90;;;28.36;48.07;98782.69;5040884;27;129575;-79
2022/06/19 10:21:05;;;;;;;4.63;2.80;;;25.90;99.90;;;28.53;47.92;98772.91;5039755;27;121848;-77
2022/06/19 10:23:52;;;;;;;4.22;2.30;;;26.20;99.90;;;28.89;48.81;98788.47;5040677;27;122109;-73
2022/06/19 10:26:37;;;;;;;7.93;2.72;;;26.70;99.90;;;28.97;47.72;98770.19;5034503;27;130473;-80
2022/06/19 10:29:23;;;;;;;4.85;2.30;;;26.20;99.90;;;29.02;46.98;98786.38;5005736;28;128218;-75
2022/06/19 10:32:05;;;;;;;;;;;26.30;99.90;;;28.92;47.75;98793.13;5021106;28;120142;-76
2022/06/19 10:34:50;;;;;;;6.97;2.70;;;26.40;99.90;;;29.16;47.86;98792.66;5020635;28;119656;-75
2022/06/19 10:37:32;;;;;;;3.97;2.38;;;26.40;99.90;;;29.25;47.67;98792.75;5020423;28;130224;-74
2022/06/19 10:40:18;;;;;;;6.22;2.90;;;26.70;99.90;;;29.47;46.28;98803.13;5020352;28;130360;-74